sensor_id;sensor_type;location;lat;lon;timestamp;pressure;altitude;pressure_sealevel;temperature;humidity
55490;BME280;44029;52.956;4.772;2023-02-12T00:00:30;104015.94;;;6.94;100.00
55490;BME280;44029;52.956;4.772;2023-02-12T00:02:55;104007.19;;;6.91;100.00
55490;BME280;44029;52.956;4.772;2023-02-12T00:05:20;104007.31;;;6.89;100.00
55490;BME280;44029;52.956;4.772;2023-02-12T00:07:46;104001.59;;;6.92;100.00
55490;BME280;44029;52.956;4.772;2023-02-12T00:10:11;104000.47;;;6.85;100.00
55490;BME280;44029;52.956;4.772;2023-02-12T00:12:37;104006.47;;;6.79;100.00
55490;BME280;44029;52.956;4.772;2023-02-12T00:15:03;104008.91;;;6.82;100.00
55490;BME280;44029;52.956;4.772;2023-02-12T00:17:29;104008.81;;;6.74;100.00
55490;BME280;44029;52.956;4.772;2023-02-12T00:19:54;104010.09;;;6.70;100.00
55490;BME280;44029;52.956;4.772;2023-02-12T00:22:20;104011.38;;;6.66;100.00
55490;BME280;44029;52.956;4.772;2023-02-12T00:24:45;104016.25;;;6.62;100.00
55490;BME280;44029;52.956;4.772;2023-02-12T00:27:10;104017.44;;;6.60;100.00
55490;BME280;44029;52.956;4.772;2023-02-12T00:29:36;104007.25;;;6.62;100.00
55490;BME280;44029;52.956;4.772;2023-02-12T00:32:02;104015.28;;;6.63;100.00
55490;BME280;44029;52.956;4.772;2023-02-12T00:34:27;104016.00;;;6.55;100.00
55490;BME280;44029;52.956;4.772;2023-02-12T00:36:52;104009.84;;;6.53;100.00
55490;BME280;44029;52.956;4.772;2023-02-12T00:39:18;104004.81;;;6.49;100.00
55490;BME280;44029;52.956;4.772;2023-02-12T00:41:43;104004.81;;;6.49;100.00
55490;BME280;44029;52.956;4.772;2023-02-12T00:44:08;104007.25;;;6.42;100.00
55490;BME280;44029;52.956;4.772;2023-02-12T00:46:34;104009.97;;;6.42;100.00
55490;BME280;44029;52.956;4.772;2023-02-12T00:48:59;104007.97;;;6.34;100.00
55490;BME280;44029;52.956;4.772;2023-02-12T00:51:25;104010.28;;;6.29;100.00
55490;BME280;44029;52.956;4.772;2023-02-12T00:53:50;104017.00;;;6.25;100.00
55490;BME280;44029;52.956;4.772;2023-02-12T00:56:16;104012.84;;;6.31;100.00
55490;BME280;44029;52.956;4.772;2023-02-12T00:58:41;104004.09;;;6.27;100.00
55490;BME280;44029;52.956;4.772;2023-02-12T01:01:06;104005.72;;;6.20;100.00
55490;BME280;44029;52.956;4.772;2023-02-12T01:03:32;104012.13;;;6.19;100.00
55490;BME280;44029;52.956;4.772;2023-02-12T01:05:57;104007.25;;;6.32;100.00
55490;BME280;44029;52.956;4.772;2023-02-12T01:08:22;104011.44;;;6.17;100.00
55490;BME280;44029;52.956;4.772;2023-02-12T01:10:59;104007.41;;;6.31;100.00
55490;BME280;44029;52.956;4.772;2023-02-12T01:13:25;103998.38;;;6.21;100.00
55490;BME280;44029;52.956;4.772;2023-02-12T01:16:06;104007.56;;;6.29;100.00
55490;BME280;44029;52.956;4.772;2023-02-12T01:18:37;104009.84;;;6.24;100.00
55490;BME280;44029;52.956;4.772;2023-02-12T01:21:14;104006.72;;;6.38;100.00
55490;BME280;44029;52.956;4.772;2023-02-12T01:23:40;104004.41;;;6.24;100.00
55490;BME280;44029;52.956;4.772;2023-02-12T01:26:06;104007.53;;;6.19;100.00
55490;BME280;44029;52.956;4.772;2023-02-12T01:28:35;104008.56;;;6.18;100.00
55490;BME280;44029;52.956;4.772;2023-02-12T01:31:00;104009.69;;;6.16;100.00
55490;BME280;44029;52.956;4.772;2023-02-12T01:33:26;103999.97;;;6.13;100.00
55490;BME280;44029;52.956;4.772;2023-02-12T01:35:51;104001.97;;;6.11;100.00
55490;BME280;44029;52.956;4.772;2023-02-12T01:38:16;103993.34;;;6.16;100.00
55490;BME280;44029;52.956;4.772;2023-02-12T01:40:42;103999.13;;;6.13;100.00
55490;BME280;44029;52.956;4.772;2023-02-12T01:43:11;104007.97;;;6.34;100.00
55490;BME280;44029;52.956;4.772;2023-02-12T01:45:44;104001.25;;;6.29;100.00
55490;BME280;44029;52.956;4.772;2023-02-12T01:48:11;104005.53;;;6.22;100.00
55490;BME280;44029;52.956;4.772;2023-02-12T01:50:37;104005.41;;;6.13;100.00
55490;BME280;44029;52.956;4.772;2023-02-12T01:53:03;104002.97;;;6.20;100.00
55490;BME280;44029;52.956;4.772;2023-02-12T01:55:28;104008.25;;;6.22;100.00
55490;BME280;44029;52.956;4.772;2023-02-12T01:57:54;104002.25;;;6.18;100.00
55490;BME280;44029;52.956;4.772;2023-02-12T02:00:22;103999.81;;;6.25;100.00
55490;BME280;44029;52.956;4.772;2023-02-12T02:02:51;103995.53;;;6.32;100.00
55490;BME280;44029;52.956;4.772;2023-02-12T02:05:34;103988.50;;;6.29;100.00
55490;BME280;44029;52.956;4.772;2023-02-12T02:08:02;103988.63;;;6.08;100.00
55490;BME280;44029;52.956;4.772;2023-02-12T02:10:29;103986.34;;;6.04;100.00
55490;BME280;44029;52.956;4.772;2023-02-12T02:12:54;103992.34;;;5.97;100.00
55490;BME280;44029;52.956;4.772;2023-02-12T02:15:41;103998.81;;;6.06;100.00
55490;BME280;44029;52.956;4.772;2023-02-12T02:18:25;104001.66;;;6.14;100.00
55490;BME280;44029;52.956;4.772;2023-02-12T02:26:54;104001.81;;;6.03;100.00
55490;BME280;44029;52.956;4.772;2023-02-12T02:32:29;103996.50;;;6.31;100.00
55490;BME280;44029;52.956;4.772;2023-02-12T02:35:11;103994.81;;;6.20;100.00
55490;BME280;44029;52.956;4.772;2023-02-12T02:37:46;103994.53;;;6.13;100.00
55490;BME280;44029;52.956;4.772;2023-02-12T02:45:31;103989.94;;;6.04;100.00
55490;BME280;44029;52.956;4.772;2023-02-12T02:48:02;103986.63;;;6.10;100.00
55490;BME280;44029;52.956;4.772;2023-02-12T02:50:31;103989.94;;;6.04;100.00
55490;BME280;44029;52.956;4.772;2023-02-12T02:53:06;103987.78;;;6.08;100.00
55490;BME280;44029;52.956;4.772;2023-02-12T02:55:39;104000.19;;;5.91;100.00
55490;BME280;44029;52.956;4.772;2023-02-12T02:58:20;103987.88;;;5.87;100.00
55490;BME280;44029;52.956;4.772;2023-02-12T03:00:52;103989.63;;;5.97;100.00
55490;BME280;44029;52.956;4.772;2023-02-12T03:03:25;103990.22;;;6.11;100.00
55490;BME280;44029;52.956;4.772;2023-02-12T03:05:57;103990.78;;;6.14;100.00
55490;BME280;44029;52.956;4.772;2023-02-12T03:08:29;103994.38;;;6.25;100.00
55490;BME280;44029;52.956;4.772;2023-02-12T03:11:10;103994.81;;;6.20;100.00
55490;BME280;44029;52.956;4.772;2023-02-12T03:13:47;103989.06;;;6.23;100.00
55490;BME280;44029;52.956;4.772;2023-02-12T03:16:22;103981.50;;;6.07;100.00
55490;BME280;44029;52.956;4.772;2023-02-12T03:18:54;103979.34;;;6.21;100.00
55490;BME280;44029;52.956;4.772;2023-02-12T03:21:27;103979.34;;;6.21;100.00
55490;BME280;44029;52.956;4.772;2023-02-12T03:24:02;103975.31;;;6.15;100.00
55490;BME280;44029;52.956;4.772;2023-02-12T03:26:39;103982.31;;;6.27;100.00
55490;BME280;44029;52.956;4.772;2023-02-12T03:29:06;103984.19;;;6.17;100.00
55490;BME280;44029;52.956;4.772;2023-02-12T03:31:37;103985.63;;;6.41;100.00
55490;BME280;44029;52.956;4.772;2023-02-12T03:37:04;103977.00;;;6.55;100.00
55490;BME280;44029;52.956;4.772;2023-02-12T03:42:31;103989.63;;;6.36;100.00
55490;BME280;44029;52.956;4.772;2023-02-12T03:48:05;103975.88;;;6.48;100.00
55490;BME280;44029;52.956;4.772;2023-02-12T03:53:08;103987.75;;;6.56;100.00
55490;BME280;44029;52.956;4.772;2023-02-12T03:55:35;103986.13;;;6.73;100.00
55490;BME280;44029;52.956;4.772;2023-02-12T03:58:07;103982.69;;;6.71;100.00
55490;BME280;44029;52.956;4.772;2023-02-12T04:00:36;103982.28;;;6.66;100.00
55490;BME280;44029;52.956;4.772;2023-02-12T04:03:03;103985.47;;;6.52;100.00
55490;BME280;44029;52.956;4.772;2023-02-12T04:05:28;103984.75;;;6.60;100.00
55490;BME280;44029;52.956;4.772;2023-02-12T04:07:55;103986.72;;;6.67;100.00
55490;BME280;44029;52.956;4.772;2023-02-12T04:13:41;103995.28;;;6.82;100.00
55490;BME280;44029;52.956;4.772;2023-02-12T04:16:31;103997.00;;;6.93;100.00
55490;BME280;44029;52.956;4.772;2023-02-12T04:18:58;104001.78;;;6.81;100.00
55490;BME280;44029;52.956;4.772;2023-02-12T04:21:42;103998.97;;;7.01;100.00
55490;BME280;44029;52.956;4.772;2023-02-12T04:26:54;104007.53;;;7.15;100.00
55490;BME280;44029;52.956;4.772;2023-02-12T04:29:40;103999.81;;;7.11;100.00
55490;BME280;44029;52.956;4.772;2023-02-12T04:34:48;104010.97;;;7.18;100.00
55490;BME280;44029;52.956;4.772;2023-02-12T04:37:18;104010.09;;;7.17;100.00
55490;BME280;44029;52.956;4.772;2023-02-12T04:39:46;104011.97;;;7.16;100.00
55490;BME280;44029;52.956;4.772;2023-02-12T04:42:12;104025.28;;;7.20;100.00
55490;BME280;44029;52.956;4.772;2023-02-12T04:44:41;104020.97;;;7.27;100.00
55490;BME280;44029;52.956;4.772;2023-02-12T04:47:10;104015.31;;;7.38;100.00
55490;BME280;44029;52.956;4.772;2023-02-12T04:49:36;104023.00;;;7.25;100.00
55490;BME280;44029;52.956;4.772;2023-02-12T04:52:02;104023.28;;;7.22;100.00
55490;BME280;44029;52.956;4.772;2023-02-12T04:54:27;104021.44;;;7.22;100.00
55490;BME280;44029;52.956;4.772;2023-02-12T04:56:52;104018.84;;;7.21;100.00
55490;BME280;44029;52.956;4.772;2023-02-12T04:59:18;104023.28;;;7.22;100.00
55490;BME280;44029;52.956;4.772;2023-02-12T05:01:43;104018.25;;;7.27;100.00
55490;BME280;44029;52.956;4.772;2023-02-12T05:04:11;104020.69;;;7.30;100.00
55490;BME280;44029;52.956;4.772;2023-02-12T05:06:38;104027.31;;;7.18;100.00
55490;BME280;44029;52.956;4.772;2023-02-12T05:09:04;104023.84;;;7.25;100.00
55490;BME280;44029;52.956;4.772;2023-02-12T05:11:30;104024.25;;;7.30;100.00
55490;BME280;44029;52.956;4.772;2023-02-12T05:13:55;104022.94;;;7.34;100.00
55490;BME280;44029;52.956;4.772;2023-02-12T05:16:21;104017.47;;;7.34;100.00
55490;BME280;44029;52.956;4.772;2023-02-12T05:18:47;104021.75;;;7.47;100.00
55490;BME280;44029;52.956;4.772;2023-02-12T05:21:13;104023.06;;;7.43;100.00
55490;BME280;44029;52.956;4.772;2023-02-12T05:23:39;104022.31;;;7.50;100.00
55490;BME280;44029;52.956;4.772;2023-02-12T05:26:07;104018.81;;;7.58;100.00
55490;BME280;44029;52.956;4.772;2023-02-12T05:28:34;104013.00;;;7.43;100.00
55490;BME280;44029;52.956;4.772;2023-02-12T05:31:01;104019.56;;;7.50;100.00
55490;BME280;44029;52.956;4.772;2023-02-12T05:33:27;104016.16;;;7.48;100.00
55490;BME280;44029;52.956;4.772;2023-02-12T05:35:52;104024.31;;;7.48;100.00
55490;BME280;44029;52.956;4.772;2023-02-12T05:38:18;104025.72;;;7.52;100.00
55490;BME280;44029;52.956;4.772;2023-02-12T05:40:43;104026.75;;;7.51;100.00
55490;BME280;44029;52.956;4.772;2023-02-12T05:43:08;104019.44;;;7.52;100.00
55490;BME280;44029;52.956;4.772;2023-02-12T05:45:34;104016.84;;;7.50;100.00
55490;BME280;44029;52.956;4.772;2023-02-12T05:47:59;104018.88;;;7.48;100.00
55490;BME280;44029;52.956;4.772;2023-02-12T05:50:25;104024.75;;;7.53;100.00
55490;BME280;44029;52.956;4.772;2023-02-12T05:52:50;104030.91;;;7.55;100.00
55490;BME280;44029;52.956;4.772;2023-02-12T05:55:15;104029.16;;;7.54;100.00
55490;BME280;44029;52.956;4.772;2023-02-12T05:57:41;104032.72;;;7.65;100.00
55490;BME280;44029;52.956;4.772;2023-02-12T06:00:07;104033.13;;;7.70;100.00
55490;BME280;44029;52.956;4.772;2023-02-12T06:02:33;104033.72;;;7.64;100.00
55490;BME280;44029;52.956;4.772;2023-02-12T06:04:59;104026.22;;;7.38;100.00
55490;BME280;44029;52.956;4.772;2023-02-12T06:07:24;104032.16;;;7.61;100.00
55490;BME280;44029;52.956;4.772;2023-02-12T06:09:50;104030.97;;;7.64;100.00
55490;BME280;44029;52.956;4.772;2023-02-12T06:12:15;104036.84;;;7.69;100.00
55490;BME280;44029;52.956;4.772;2023-02-12T06:14:41;104031.41;;;7.69;100.00
55490;BME280;44029;52.956;4.772;2023-02-12T06:17:06;104036.94;;;7.77;100.00
55490;BME280;44029;52.956;4.772;2023-02-12T06:19:32;104043.56;;;7.74;100.00
55490;BME280;44029;52.956;4.772;2023-02-12T06:21:57;104036.69;;;7.70;100.00
55490;BME280;44029;52.956;4.772;2023-02-12T06:24:23;104039.09;;;7.55;100.00
55490;BME280;44029;52.956;4.772;2023-02-12T06:26:49;104048.94;;;7.66;100.00
55490;BME280;44029;52.956;4.772;2023-02-12T06:29:15;104043.72;;;7.73;100.00
55490;BME280;44029;52.956;4.772;2023-02-12T06:31:40;104041.25;;;7.80;100.00
55490;BME280;44029;52.956;4.772;2023-02-12T06:34:08;104035.56;;;7.91;100.00
55490;BME280;44029;52.956;4.772;2023-02-12T06:36:39;104035.03;;;7.87;100.00
55490;BME280;44029;52.956;4.772;2023-02-12T06:39:05;104031.94;;;7.72;100.00
55490;BME280;44029;52.956;4.772;2023-02-12T06:41:30;104031.19;;;7.80;100.00
55490;BME280;44029;52.956;4.772;2023-02-12T06:43:56;104036.50;;;7.82;100.00
55490;BME280;44029;52.956;4.772;2023-02-12T06:46:21;104036.91;;;7.87;100.00
55490;BME280;44029;52.956;4.772;2023-02-12T06:48:47;104038.38;;;7.81;100.00
55490;BME280;44029;52.956;4.772;2023-02-12T06:51:15;104042.34;;;7.87;100.00
55490;BME280;44029;52.956;4.772;2023-02-12T06:53:40;104044.03;;;7.70;100.00
55490;BME280;44029;52.956;4.772;2023-02-12T06:56:07;104046.44;;;7.73;100.00
55490;BME280;44029;52.956;4.772;2023-02-12T06:58:46;104040.34;;;7.89;100.00
55490;BME280;44029;52.956;4.772;2023-02-12T07:01:17;104044.94;;;7.88;100.00
55490;BME280;44029;52.956;4.772;2023-02-12T07:03:47;104043.91;;;7.89;100.00
55490;BME280;44029;52.956;4.772;2023-02-12T07:06:12;104042.16;;;7.70;100.00
55490;BME280;44029;52.956;4.772;2023-02-12T07:08:39;104042.41;;;7.77;100.00
55490;BME280;44029;52.956;4.772;2023-02-12T07:11:04;104048.88;;;7.76;100.00
55490;BME280;44029;52.956;4.772;2023-02-12T07:13:31;104058.88;;;7.85;100.00
55490;BME280;44029;52.956;4.772;2023-02-12T07:16:05;104056.56;;;7.90;100.00
55490;BME280;44029;52.956;4.772;2023-02-12T07:18:32;104064.09;;;7.79;100.00
55490;BME280;44029;52.956;4.772;2023-02-12T07:20:58;104065.41;;;7.74;100.00
55490;BME280;44029;52.956;4.772;2023-02-12T07:23:23;104067.06;;;7.85;100.00
55490;BME280;44029;52.956;4.772;2023-02-12T07:25:57;104061.75;;;7.84;100.00
55490;BME280;44029;52.956;4.772;2023-02-12T07:28:22;104069.31;;;7.72;100.00
55490;BME280;44029;52.956;4.772;2023-02-12T07:30:48;104063.94;;;7.80;100.00
55490;BME280;44029;52.956;4.772;2023-02-12T07:33:13;104076.16;;;7.76;100.00
55490;BME280;44029;52.956;4.772;2023-02-12T07:35:39;104073.53;;;7.84;100.00
55490;BME280;44029;52.956;4.772;2023-02-12T07:38:04;104075.47;;;7.74;100.00
55490;BME280;44029;52.956;4.772;2023-02-12T07:40:29;104081.44;;;7.87;100.00
55490;BME280;44029;52.956;4.772;2023-02-12T07:42:55;104080.44;;;7.88;100.00
55490;BME280;44029;52.956;4.772;2023-02-12T07:45:21;104081.50;;;7.96;100.00
55490;BME280;44029;52.956;4.772;2023-02-12T07:47:46;104082.94;;;8.00;100.00
55490;BME280;44029;52.956;4.772;2023-02-12T07:50:11;104085.06;;;8.06;100.00
55490;BME280;44029;52.956;4.772;2023-02-12T07:52:37;104088.69;;;7.97;100.00
55490;BME280;44029;52.956;4.772;2023-02-12T07:55:02;104086.97;;;7.96;100.00
55490;BME280;44029;52.956;4.772;2023-02-12T07:57:27;104086.41;;;7.92;100.00
55490;BME280;44029;52.956;4.772;2023-02-12T07:59:53;104091.50;;;8.05;100.00
55490;BME280;44029;52.956;4.772;2023-02-12T08:02:18;104093.88;;;8.00;100.00
55490;BME280;44029;52.956;4.772;2023-02-12T08:04:44;104102.91;;;8.00;100.00
55490;BME280;44029;52.956;4.772;2023-02-12T08:07:09;104100.41;;;8.07;100.00
55490;BME280;44029;52.956;4.772;2023-02-12T08:09:34;104107.88;;;8.05;100.00
55490;BME280;44029;52.956;4.772;2023-02-12T08:11:59;104110.81;;;8.03;100.00
55490;BME280;44029;52.956;4.772;2023-02-12T08:14:25;104109.88;;;8.12;100.00
55490;BME280;44029;52.956;4.772;2023-02-12T08:16:51;104115.34;;;8.12;100.00
55490;BME280;44029;52.956;4.772;2023-02-12T08:19:17;104115.50;;;8.11;100.00
55490;BME280;44029;52.956;4.772;2023-02-12T08:21:43;104114.38;;;8.04;100.00
55490;BME280;44029;52.956;4.772;2023-02-12T08:24:09;104116.91;;;8.15;100.00
55490;BME280;44029;52.956;4.772;2023-02-12T08:26:37;104124.47;;;8.21;100.00
55490;BME280;44029;52.956;4.772;2023-02-12T08:29:06;104119.19;;;8.38;100.00
55490;BME280;44029;52.956;4.772;2023-02-12T08:31:34;104126.81;;;8.34;100.00
55490;BME280;44029;52.956;4.772;2023-02-12T08:34:00;104120.66;;;8.32;100.00
55490;BME280;44029;52.956;4.772;2023-02-12T08:36:37;104124.69;;;8.56;100.00
55490;BME280;44029;52.956;4.772;2023-02-12T08:39:04;104123.66;;;8.57;100.00
55490;BME280;44029;52.956;4.772;2023-02-12T08:41:30;104122.59;;;8.49;100.00
55490;BME280;44029;52.956;4.772;2023-02-12T08:44:00;104123.06;;;8.63;100.00
55490;BME280;44029;52.956;4.772;2023-02-12T08:46:31;104123.44;;;8.68;100.00
55490;BME280;44029;52.956;4.772;2023-02-12T08:48:59;104122.56;;;8.67;100.00
55490;BME280;44029;52.956;4.772;2023-02-12T08:51:27;104126.16;;;8.68;100.00
55490;BME280;44029;52.956;4.772;2023-02-12T08:53:57;104124.38;;;8.77;100.00
55490;BME280;44029;52.956;4.772;2023-02-12T08:56:24;104128.44;;;8.73;100.00
55490;BME280;44029;52.956;4.772;2023-02-12T08:58:50;104130.72;;;8.59;100.00
55490;BME280;44029;52.956;4.772;2023-02-12T09:01:20;104130.22;;;8.82;100.00
55490;BME280;44029;52.956;4.772;2023-02-12T09:03:46;104137.03;;;8.78;100.00
55490;BME280;44029;52.956;4.772;2023-02-12T09:06:14;104129.03;;;8.84;100.00
55490;BME280;44029;52.956;4.772;2023-02-12T09:08:39;104128.19;;;8.84;100.00
55490;BME280;44029;52.956;4.772;2023-02-12T09:11:08;104128.09;;;8.94;100.00
55490;BME280;44029;52.956;4.772;2023-02-12T09:13:34;104120.53;;;8.87;100.00
55490;BME280;44029;52.956;4.772;2023-02-12T09:16:01;104120.59;;;8.96;100.00
55490;BME280;44029;52.956;4.772;2023-02-12T09:18:27;104120.09;;;8.92;100.00
55490;BME280;44029;52.956;4.772;2023-02-12T09:20:52;104127.94;;;8.95;100.00
55490;BME280;44029;52.956;4.772;2023-02-12T09:23:17;104125.59;;;9.00;100.00
55490;BME280;44029;52.956;4.772;2023-02-12T09:25:44;104125.28;;;9.03;100.00
55490;BME280;44029;52.956;4.772;2023-02-12T09:28:11;104120.81;;;9.02;100.00
55490;BME280;44029;52.956;4.772;2023-02-12T09:30:37;104121.09;;;9.17;100.00
55490;BME280;44029;52.956;4.772;2023-02-12T09:33:04;104114.81;;;9.25;100.00
55490;BME280;44029;52.956;4.772;2023-02-12T09:35:33;104122.75;;;9.36;100.00
55490;BME280;44029;52.956;4.772;2023-02-12T09:37:59;104115.75;;;9.34;100.00
55490;BME280;44029;52.956;4.772;2023-02-12T09:40:32;104110.53;;;9.48;100.00
55490;BME280;44029;52.956;4.772;2023-02-12T09:46:04;104109.59;;;9.66;100.00
55490;BME280;44029;52.956;4.772;2023-02-12T09:51:06;104101.50;;;9.56;100.00
55490;BME280;44029;52.956;4.772;2023-02-12T09:53:36;104098.31;;;9.69;100.00
55490;BME280;44029;52.956;4.772;2023-02-12T09:56:10;104100.38;;;9.75;100.00
55490;BME280;44029;52.956;4.772;2023-02-12T09:58:47;104099.06;;;9.79;100.00
55490;BME280;44029;52.956;4.772;2023-02-12T10:01:17;104104.84;;;9.76;100.00
55490;BME280;44029;52.956;4.772;2023-02-12T10:03:43;104108.78;;;9.74;100.00
55490;BME280;44029;52.956;4.772;2023-02-12T10:06:16;104096.34;;;9.87;100.00
55490;BME280;44029;52.956;4.772;2023-02-12T10:08:55;104094.97;;;9.92;100.00
55490;BME280;44029;52.956;4.772;2023-02-12T10:25:50;104084.44;;;10.05;100.00
55490;BME280;44029;52.956;4.772;2023-02-12T10:28:26;104078.59;;;10.08;100.00
55490;BME280;44029;52.956;4.772;2023-02-12T10:30:55;104072.59;;;10.04;100.00
55490;BME280;44029;52.956;4.772;2023-02-12T10:33:38;104072.13;;;10.17;100.00
55490;BME280;44029;52.956;4.772;2023-02-12T10:39:22;104059.97;;;10.20;100.00
55490;BME280;44029;52.956;4.772;2023-02-12T10:41:54;104057.28;;;10.36;100.00
55490;BME280;44029;52.956;4.772;2023-02-12T10:44:21;104071.69;;;10.38;100.00
55490;BME280;44029;52.956;4.772;2023-02-12T10:46:46;104066.00;;;10.32;100.00
55490;BME280;44029;52.956;4.772;2023-02-12T10:49:14;104056.09;;;10.39;100.00
55490;BME280;44029;52.956;4.772;2023-02-12T10:51:57;104057.09;;;10.38;100.00
55490;BME280;44029;52.956;4.772;2023-02-12T10:57:09;104059.19;;;10.44;100.00
55490;BME280;44029;52.956;4.772;2023-02-12T10:59:35;104062.72;;;10.20;100.00
55490;BME280;44029;52.956;4.772;2023-02-12T11:02:01;104056.28;;;10.54;100.00
55490;BME280;44029;52.956;4.772;2023-02-12T11:04:28;104058.84;;;10.39;100.00
55490;BME280;44029;52.956;4.772;2023-02-12T11:07:06;104055.06;;;10.40;100.00
55490;BME280;44029;52.956;4.772;2023-02-12T11:09:40;104052.00;;;10.35;100.00
55490;BME280;44029;52.956;4.772;2023-02-12T11:15:17;104047.03;;;10.63;100.00
55490;BME280;44029;52.956;4.772;2023-02-12T11:18:04;104053.69;;;10.52;100.00
55490;BME280;44029;52.956;4.772;2023-02-12T11:20:38;104046.50;;;10.68;100.00
55490;BME280;44029;52.956;4.772;2023-02-12T11:23:23;104048.75;;;10.48;100.00
55490;BME280;44029;52.956;4.772;2023-02-12T11:28:33;104054.88;;;10.33;100.00
55490;BME280;44029;52.956;4.772;2023-02-12T11:35:57;104037.59;;;10.41;100.00
55490;BME280;44029;52.956;4.772;2023-02-12T11:38:28;104038.63;;;10.48;100.00
55490;BME280;44029;52.956;4.772;2023-02-12T11:41:01;104033.13;;;10.56;100.00
55490;BME280;44029;52.956;4.772;2023-02-12T11:43:28;104032.09;;;10.49;100.00
55490;BME280;44029;52.956;4.772;2023-02-12T11:45:56;104028.69;;;10.39;100.00
55490;BME280;44029;52.956;4.772;2023-02-12T11:48:26;104026.63;;;10.41;100.00
55490;BME280;44029;52.956;4.772;2023-02-12T11:50:56;104027.84;;;10.63;100.00
55490;BME280;44029;52.956;4.772;2023-02-12T11:53:32;104030.38;;;10.89;100.00
55490;BME280;44029;52.956;4.772;2023-02-12T11:56:05;104022.16;;;10.81;100.00
55490;BME280;44029;52.956;4.772;2023-02-12T11:58:32;104028.69;;;10.63;100.00
55490;BME280;44029;52.956;4.772;2023-02-12T12:01:08;104028.16;;;10.76;100.00
55490;BME280;44029;52.956;4.772;2023-02-12T12:03:46;104026.59;;;10.82;100.00
55490;BME280;44029;52.956;4.772;2023-02-12T12:06:32;104028.50;;;10.73;100.00
55490;BME280;44029;52.956;4.772;2023-02-12T12:11:39;104029.53;;;10.64;100.00
55490;BME280;44029;52.956;4.772;2023-02-12T12:17:13;104028.50;;;10.73;100.00
55490;BME280;44029;52.956;4.772;2023-02-12T12:20:08;104029.53;;;10.64;100.00
55490;BME280;44029;52.956;4.772;2023-02-12T12:22:39;104025.78;;;10.57;100.00
55490;BME280;44029;52.956;4.772;2023-02-12T12:27:55;104019.06;;;10.84;100.00
55490;BME280;44029;52.956;4.772;2023-02-12T12:41:46;104004.53;;;10.75;100.00
55490;BME280;44029;52.956;4.772;2023-02-12T12:47:09;104008.47;;;10.48;100.00
55490;BME280;44029;52.956;4.772;2023-02-12T12:49:58;104002.28;;;10.71;100.00
55490;BME280;44029;52.956;4.772;2023-02-12T12:52:42;103995.78;;;10.72;100.00
55490;BME280;44029;52.956;4.772;2023-02-12T12:55:36;103992.50;;;10.76;100.00
55490;BME280;44029;52.956;4.772;2023-02-12T12:58:13;103999.75;;;10.44;100.00
55490;BME280;44029;52.956;4.772;2023-02-12T13:06:40;103992.69;;;10.67;100.00
55490;BME280;44029;52.956;4.772;2023-02-12T13:09:47;103993.00;;;10.80;100.00
55490;BME280;44029;52.956;4.772;2023-02-12T13:12:39;103993.03;;;10.72;100.00
55490;BME280;44029;52.956;4.772;2023-02-12T13:18:23;103972.78;;;10.89;100.00
55490;BME280;44029;52.956;4.772;2023-02-12T13:26:43;103969.72;;;10.76;100.00
55490;BME280;44029;52.956;4.772;2023-02-12T13:29:15;103968.16;;;10.73;100.00
55490;BME280;44029;52.956;4.772;2023-02-12T13:32:15;103964.91;;;10.78;100.00
55490;BME280;44029;52.956;4.772;2023-02-12T13:34:39;103966.44;;;10.80;100.00
55490;BME280;44029;52.956;4.772;2023-02-12T13:37:13;103966.28;;;10.82;100.00
55490;BME280;44029;52.956;4.772;2023-02-12T13:39:42;103971.38;;;10.93;100.00
55490;BME280;44029;52.956;4.772;2023-02-12T13:44:56;103964.34;;;10.99;100.00
55490;BME280;44029;52.956;4.772;2023-02-12T13:53:17;103955.44;;;10.97;100.00
55490;BME280;44029;52.956;4.772;2023-02-12T13:56:14;103964.19;;;10.92;100.00
55490;BME280;44029;52.956;4.772;2023-02-12T13:58:48;103958.03;;;10.82;100.00
55490;BME280;44029;52.956;4.772;2023-02-12T14:01:39;103953.41;;;10.91;100.00
55490;BME280;44029;52.956;4.772;2023-02-12T14:04:32;103959.09;;;10.81;100.00
55490;BME280;44029;52.956;4.772;2023-02-12T14:07:00;103962.16;;;10.78;100.00
55490;BME280;44029;52.956;4.772;2023-02-12T14:09:39;103953.22;;;10.84;100.00
55490;BME280;44029;52.956;4.772;2023-02-12T14:12:32;103953.59;;;10.81;100.00
55490;BME280;44029;52.956;4.772;2023-02-12T14:24:55;103957.66;;;10.93;100.00
55490;BME280;44029;52.956;4.772;2023-02-12T14:37:51;103947.06;;;10.82;100.00
55490;BME280;44029;52.956;4.772;2023-02-12T14:40:36;103947.19;;;10.97;100.00
55490;BME280;44029;52.956;4.772;2023-02-12T14:45:51;103946.09;;;10.58;100.00
55490;BME280;44029;52.956;4.772;2023-02-12T14:53:48;103936.88;;;10.43;100.00
55490;BME280;44029;52.956;4.772;2023-02-12T14:56:19;103937.38;;;10.47;100.00
55490;BME280;44029;52.956;4.772;2023-02-12T14:58:45;103943.16;;;10.27;100.00
55490;BME280;44029;52.956;4.772;2023-02-12T15:01:12;103941.16;;;10.29;100.00
55490;BME280;44029;52.956;4.772;2023-02-12T15:03:39;103942.50;;;10.41;100.00
55490;BME280;44029;52.956;4.772;2023-02-12T15:06:22;103943.72;;;10.55;100.00
55490;BME280;44029;52.956;4.772;2023-02-12T15:08:57;103933.25;;;10.51;100.00
55490;BME280;44029;52.956;4.772;2023-02-12T15:11:44;103928.66;;;10.51;100.00
55490;BME280;44029;52.956;4.772;2023-02-12T15:14:18;103933.09;;;10.36;100.00
55490;BME280;44029;52.956;4.772;2023-02-12T15:19:23;103926.41;;;10.30;100.00
55490;BME280;44029;52.956;4.772;2023-02-12T15:21:54;103924.69;;;10.29;100.00
55490;BME280;44029;52.956;4.772;2023-02-12T15:24:22;103931.72;;;10.48;100.00
55490;BME280;44029;52.956;4.772;2023-02-12T15:26:50;103921.06;;;10.61;100.00
55490;BME280;44029;52.956;4.772;2023-02-12T15:29:26;103917.78;;;10.74;100.00